Time;durP1;ratioP1;P1;durP2;ratioP2;P2;SDS_P1;SDS_P2;PMS_P1;PMS_P2;Temp;Humidity;BMP_temperature;BMP_pressure;BME280_temperature;BME280_humidity;BME280_pressure;Samples;Min_cycle;Max_cycle;Signal;HPM_P1;HPM_P2
2023/07/10 00:01:22;;;;;;;;;;;;;;;;;;5304254;28;19908;-69
2023/07/10 00:03:53;;;;;;;;;;;;;;;;;;5303693;28;20394;-69
2023/07/10 00:06:24;;;;;;;;;;;;;;;;;;5303192;28;19999;-70
2023/07/10 00:08:55;;;;;;;;;;;;;;;;;;5303731;28;19911;-69
2023/07/10 00:11:26;;;;;;;;;;;;;;;;;;5304008;28;19904;-70
2023/07/10 00:13:57;;;;;;;;;;;;;;;;;;5303199;28;19916;-69
2023/07/10 00:16:28;;;;;;;;;;;;;;;;;;5303997;28;19911;-69
2023/07/10 00:18:59;;;;;;;;;;;;;;;;;;5303592;28;19908;-69
2023/07/10 00:21:30;;;;;;;;;;;;;;;;;;5303065;28;19962;-68
2023/07/10 00:24:01;;;;;;;;;;;;;;;;;;5303692;28;19987;-69
2023/07/10 00:26:32;;;;;;;;;;;;;;;;;;5303024;28;20248;-69
2023/07/10 00:29:04;;;;;;;;;;;;;;;;;;5303686;28;19949;-69
2023/07/10 00:31:35;;;;;;;;;;;;;;;;;;5303418;28;19977;-69
2023/07/10 00:34:06;;;;;;;;;;;;;;;;;;5302924;28;19912;-69
2023/07/10 00:36:38;;;;;;;;;;;;;;;;;;5303606;28;19991;-69
2023/07/10 00:39:09;;;;;;;;;;;;;;;;;;5303338;28;19904;-69
2023/07/10 00:41:40;;;;;;;;;;;;;;;;;;5302458;28;20255;-69
2023/07/10 00:44:11;;;;;;;;;;;;;;;;;;5303896;28;19905;-69
2023/07/10 00:46:42;;;;;;;;;;;;;;;;;;5302890;28;19911;-69
2023/07/10 00:49:13;;;;;;;;;;;;;;;;;;5302920;28;19904;-69
2023/07/10 00:51:44;;;;;;;;;;;;;;;;;;5303039;28;19991;-69
2023/07/10 00:54:15;;;;;;;;;;;;;;;;;;5302910;28;19919;-70
2023/07/10 00:56:46;;;;;;;;;;;;;;;;;;5302044;28;20294;-69
2023/07/10 00:59:18;;;;;;;;;;;;;;;;;;5303723;28;19951;-69
2023/07/10 01:01:49;;;;;;;;;;;;;;;;;;5302207;28;20000;-69
2023/07/10 01:04:20;;;;;;;;;;;;;;;;;;5303508;28;19957;-69
2023/07/10 01:06:53;;;;;;;;;;;;;;;;;;5302822;28;20327;-70
2023/07/10 01:09:24;;;;;;;;;;;;;;;;;;5302535;28;19935;-69
2023/07/10 01:11:55;;;;;;;;;;;;;;;;;;5302875;28;19973;-69
2023/07/10 01:14:26;;;;;;;;;;;;;;;;;;5303144;28;19912;-70
2023/07/10 01:16:57;;;;;;;;;;;;;;;;;;5302343;28;19908;-70
2023/07/10 01:19:28;;;;;;;;;;;;;;;;;;5302900;28;19994;-69
2023/07/10 01:21:59;;;;;;;;;;;;;;;;;;5303129;28;20327;-69
2023/07/10 01:24:31;;;;;;;;;;;;;;;;;;5302169;28;19951;-69
2023/07/10 01:27:02;;;;;;;;;;;;;;;;;;5303090;28;19986;-69
2023/07/10 01:29:33;;;;;;;;;;;;;;;;;;5302234;28;19904;-69
2023/07/10 01:32:04;;;;;;;;;;;;;;;;;;5302640;28;19998;-68
2023/07/10 01:34:35;;;;;;;;;;;;;;;;;;5302993;28;19918;-68
2023/07/10 01:37:06;;;;;;;;;;;;;;;;;;5302080;28;19991;-68
2023/07/10 01:39:37;;;;;;;;;;;;;;;;;;5302886;28;19908;-69
2023/07/10 01:42:08;;;;;;;;;;;;;;;;;;5302875;28;19979;-68
2023/07/10 01:44:39;;;;;;;;;;;;;;;;;;5301657;28;19911;-69
2023/07/10 01:47:11;;;;;;;;;;;;;;;;;;5303343;28;19904;-69
2023/07/10 01:49:42;;;;;;;;;;;;;;;;;;5302664;28;19904;-69
2023/07/10 01:52:13;;;;;;;;;;;;;;;;;;5302084;28;19904;-68
2023/07/10 01:54:44;;;;;;;;;;;;;;;;;;5302382;28;19969;-68
2023/07/10 01:57:15;;;;;;;;;;;;;;;;;;5303019;28;19908;-69
2023/07/10 01:59:46;;;;;;;;;;;;;;;;;;5301314;28;19923;-68
2023/07/10 02:02:17;;;;;;;;;;;;;;;;;;5303137;28;20003;-69
2023/07/10 02:04:49;;;;;;;;;;;;;;;;;;5301495;28;19956;-69
2023/07/10 02:07:20;;;;;;;;;;;;;;;;;;5302632;28;19957;-69
2023/07/10 02:09:51;;;;;;;;;;;;;;;;;;5304913;28;20362;-69
2023/07/10 02:12:22;;;;;;;;;;;;;;;;;;5305699;28;19904;-69
2023/07/10 02:14:53;;;;;;;;;;;;;;;;;;5305913;28;19912;-69
2023/07/10 02:17:24;;;;;;;;;;;;;;;;;;5306060;28;19904;-69
2023/07/10 02:19:55;;;;;;;;;;;;;;;;;;5305265;28;19904;-69
2023/07/10 02:22:27;;;;;;;;;;;;;;;;;;5305917;28;19912;-69
2023/07/10 02:24:58;;;;;;;;;;;;;;;;;;5306165;28;20348;-68
2023/07/10 02:27:30;;;;;;;;;;;;;;;;;;5305344;28;19949;-68
2023/07/10 02:30:01;;;;;;;;;;;;;;;;;;5305968;28;19914;-68
2023/07/10 02:32:32;;;;;;;;;;;;;;;;;;5305599;28;20366;-68
2023/07/10 02:35:03;;;;;;;;;;;;;;;;;;5305063;28;19965;-69
2023/07/10 02:37:34;;;;;;;;;;;;;;;;;;5305863;28;19935;-68
2023/07/10 02:40:05;;;;;;;;;;;;;;;;;;5304734;28;19915;-69
2023/07/10 02:42:36;;;;;;;;;;;;;;;;;;5305543;28;19908;-68
2023/07/10 02:45:08;;;;;;;;;;;;;;;;;;5305485;28;19991;-68
2023/07/10 02:47:39;;;;;;;;;;;;;;;;;;5304801;28;19910;-68
2023/07/10 02:50:10;;;;;;;;;;;;;;;;;;5305710;28;20367;-69
2023/07/10 02:52:41;;;;;;;;;;;;;;;;;;5304912;28;19904;-69
2023/07/10 02:55:12;;;;;;;;;;;;;;;;;;5304922;28;19953;-69
2023/07/10 02:57:43;;;;;;;;;;;;;;;;;;5305010;28;19912;-68
2023/07/10 03:00:14;;;;;;;;;;;;;;;;;;5305757;28;20309;-68
2023/07/10 03:02:45;;;;;;;;;;;;;;;;;;5304168;28;20007;-69
2023/07/10 03:05:16;;;;;;;;;;;;;;;;;;5305635;28;19910;-68
2023/07/10 03:07:47;;;;;;;;;;;;;;;;;;5304754;28;19914;-69
2023/07/10 03:10:18;;;;;;;;;;;;;;;;;;5304876;28;19962;-69
2023/07/10 03:12:50;;;;;;;;;;;;;;;;;;5304855;28;20015;-69
2023/07/10 03:15:21;;;;;;;;;;;;;;;;;;5304617;28;20354;-69
2023/07/10 03:17:52;;;;;;;;;;;;;;;;;;5304612;28;19911;-68
2023/07/10 03:20:23;;;;;;;;;;;;;;;;;;5304350;28;19934;-68
2023/07/10 03:22:54;;;;;;;;;;;;;;;;;;5304287;28;19904;-69
2023/07/10 03:25:25;;;;;;;;;;;;;;;;;;5304785;28;19904;-69
2023/07/10 03:27:56;;;;;;;;;;;;;;;;;;5304731;28;19904;-69
2023/07/10 03:30:27;;;;;;;;;;;;;;;;;;5303428;28;19904;-69
2023/07/10 03:32:58;;;;;;;;;;;;;;;;;;5304203;28;20371;-69
2023/07/10 03:35:29;;;;;;;;;;;;;;;;;;5304548;28;19908;-69
2023/07/10 03:38:00;;;;;;;;;;;;;;;;;;5303697;28;19908;-69
2023/07/10 03:40:32;;;;;;;;;;;;;;;;;;5304720;28;20370;-69
2023/07/10 03:43:03;;;;;;;;;;;;;;;;;;5304141;28;19904;-69
2023/07/10 03:45:34;;;;;;;;;;;;;;;;;;5303756;28;20343;-69
2023/07/10 03:48:05;;;;;;;;;;;;;;;;;;5304438;28;19904;-69
2023/07/10 03:50:36;;;;;;;;;;;;;;;;;;5303290;28;19933;-69
2023/07/10 03:53:07;;;;;;;;;;;;;;;;;;5304186;28;20276;-69
2023/07/10 03:55:38;;;;;;;;;;;;;;;;;;5304266;28;19911;-69
2023/07/10 03:58:09;;;;;;;;;;;;;;;;;;5303259;28;19904;-69
2023/07/10 04:00:40;;;;;;;;;;;;;;;;;;5303887;28;19904;-69
2023/07/10 04:03:12;;;;;;;;;;;;;;;;;;5304228;28;20021;-69
2023/07/10 04:05:48;;;;;;;;;;;;;;;;;;5302737;28;19916;-69
2023/07/10 04:08:19;;;;;;;;;;;;;;;;;;5304124;28;19904;-69
2023/07/10 04:10:50;;;;;;;;;;;;;;;;;;5303824;28;19904;-69
2023/07/10 04:13:21;;;;;;;;;;;;;;;;;;5303116;28;19916;-69
2023/07/10 04:15:52;;;;;;;;;;;;;;;;;;5303320;28;20361;-69
2023/07/10 04:18:24;;;;;;;;;;;;;;;;;;5302896;28;20303;-69
2023/07/10 04:20:55;;;;;;;;;;;;;;;;;;5303404;28;20004;-69
2023/07/10 04:23:26;;;;;;;;;;;;;;;;;;5303859;28;19911;-70
2023/07/10 04:25:57;;;;;;;;;;;;;;;;;;5302771;28;19904;-69
2023/07/10 04:28:28;;;;;;;;;;;;;;;;;;5303498;28;19966;-69
2023/07/10 04:30:59;;;;;;;;;;;;;;;;;;5302495;28;19920;-69
2023/07/10 04:33:30;;;;;;;;;;;;;;;;;;5302457;28;20369;-69
2023/07/10 04:36:01;;;;;;;;;;;;;;;;;;5303474;28;19904;-69
2023/07/10 04:38:32;;;;;;;;;;;;;;;;;;5303381;28;19900;-69
2023/07/10 04:41:03;;;;;;;;;;;;;;;;;;5302858;28;19904;-69
2023/07/10 04:43:34;;;;;;;;;;;;;;;;;;5303193;28;19900;-69
2023/07/10 04:46:06;;;;;;;;;;;;;;;;;;5303144;28;19911;-69
2023/07/10 04:48:37;;;;;;;;;;;;;;;;;;5302408;28;19906;-69
2023/07/10 04:51:09;;;;;;;;;;;;;;;;;;5303110;28;19908;-69
2023/07/10 04:53:40;;;;;;;;;;;;;;;;;;5302018;28;19959;-69
2023/07/10 04:56:11;;;;;;;;;;;;;;;;;;5303431;28;19947;-68
2023/07/10 04:58:42;;;;;;;;;;;;;;;;;;5302785;28;19907;-68
2023/07/10 05:01:14;;;;;;;;;;;;;;;;;;5302668;28;19911;-69
2023/07/10 05:03:45;;;;;;;;;;;;;;;;;;5302710;28;20369;-69
2023/07/10 05:06:16;;;;;;;;;;;;;;;;;;5303380;28;19904;-69
2023/07/10 05:08:47;;;;;;;;;;;;;;;;;;5301834;28;19904;-70
2023/07/10 05:11:18;;;;;;;;;;;;;;;;;;5303162;28;19904;-70
2023/07/10 05:13:49;;;;;;;;;;;;;;;;;;5302680;28;19935;-70
2023/07/10 05:16:20;;;;;;;;;;;;;;;;;;5302343;28;19904;-68
2023/07/10 05:18:51;;;;;;;;;;;;;;;;;;5302513;28;19927;-68
2023/07/10 05:21:22;;;;;;;;;;;;;;;;;;5303005;28;19908;-68
2023/07/10 05:23:54;;;;;;;;;;;;;;;;;;5301604;28;19919;-68
2023/07/10 05:26:25;;;;;;;;;;;;;;;;;;5302950;28;19904;-69
2023/07/10 05:28:56;;;;;;;;;;;;;;;;;;5302087;28;20347;-68
2023/07/10 05:31:27;;;;;;;;;;;;;;;;;;5302394;28;20010;-69
2023/07/10 05:33:58;;;;;;;;;;;;;;;;;;5302492;28;19923;-68
2023/07/10 05:36:29;;;;;;;;;;;;;;;;;;5301919;28;19988;-70
2023/07/10 05:39:00;;;;;;;;;;;;;;;;;;5302858;28;19958;-68
2023/07/10 05:41:33;;;;;;;;;;;;;;;;;;5302769;28;19904;-68
2023/07/10 05:44:06;;;;;;;;;;;;;;;;;;5304896;28;19908;-68
2023/07/10 05:46:37;;;;;;;;;;;;;;;;;;5306765;28;19918;-68
2023/07/10 05:49:08;;;;;;;;;;;;;;;;;;5306442;28;19933;-69
2023/07/10 05:51:39;;;;;;;;;;;;;;;;;;5305615;28;19903;-69
2023/07/10 05:54:10;;;;;;;;;;;;;;;;;;5306472;28;19919;-68
2023/07/10 05:56:41;;;;;;;;;;;;;;;;;;5305571;28;20316;-68
2023/07/10 05:59:12;;;;;;;;;;;;;;;;;;5306509;28;19904;-68
2023/07/10 06:01:43;;;;;;;;;;;;;;;;;;5306199;28;19908;-68
2023/07/10 06:04:15;;;;;;;;;;;;;;;;;;5305847;28;19904;-69
2023/07/10 06:06:46;;;;;;;;;;;;;;;;;;5306008;28;19973;-69
2023/07/10 06:09:17;;;;;;;;;;;;;;;;;;5306562;28;19904;-69
2023/07/10 06:11:48;;;;;;;;;;;;;;;;;;5304780;28;19931;-68
2023/07/10 06:14:19;;;;;;;;;;;;;;;;;;5306412;28;19912;-69
2023/07/10 06:16:50;;;;;;;;;;;;;;;;;;5305631;28;19994;-69
2023/07/10 06:19:21;;;;;;;;;;;;;;;;;;5305346;28;20307;-68
2023/07/10 06:21:52;;;;;;;;;;;;;;;;;;5305547;28;19904;-69
2023/07/10 06:24:24;;;;;;;;;;;;;;;;;;5305832;28;19958;-69
2023/07/10 06:26:55;;;;;;;;;;;;;;;;;;5305230;28;20334;-68
2023/07/10 06:29:26;;;;;;;;;;;;;;;;;;5305660;28;19949;-67
2023/07/10 06:31:57;;;;;;;;;;;;;;;;;;5304839;28;20216;-68
2023/07/10 06:34:28;;;;;;;;;;;;;;;;;;5305503;28;19937;-68
2023/07/10 06:36:59;;;;;;;;;;;;;;;;;;5305740;28;20056;-68
2023/07/10 06:39:30;;;;;;;;;;;;;;;;;;5304918;28;19904;-68
2023/07/10 06:42:01;;;;;;;;;;;;;;;;;;5305613;28;20275;-68
2023/07/10 06:44:33;;;;;;;;;;;;;;;;;;5305619;28;19904;-68
2023/07/10 06:47:04;;;;;;;;;;;;;;;;;;5304785;28;19904;-68
2023/07/10 06:49:35;;;;;;;;;;;;;;;;;;5301776;28;19911;-69
2023/07/10 06:52:06;;;;;;;;;;;;;;;;;;5309466;28;19998;-68
2023/07/10 06:54:37;;;;;;;;;;;;;;;;;;5324061;28;20312;-67
2023/07/10 06:57:08;;;;;;;;;;;;;;;;;;5313563;28;19908;-68
2023/07/10 06:59:39;;;;;;;;;;;;;;;;;;5303775;28;19927;-68
2023/07/10 07:02:10;;;;;;;;;;;;;;;;;;5303233;28;19904;-67
2023/07/10 07:04:42;;;;;;;;;;;;;;;;;;5304794;28;20346;-68
2023/07/10 07:07:13;;;;;;;;;;;;;;;;;;5303007;28;19904;-68
2023/07/10 07:09:44;;;;;;;;;;;;;;;;;;5303367;28;19931;-69
2023/07/10 07:12:15;;;;;;;;;;;;;;;;;;5305387;28;19904;-68
2023/07/10 07:14:46;;;;;;;;;;;;;;;;;;5303643;28;19912;-68
2023/07/10 07:17:17;;;;;;;;;;;;;;;;;;5305136;28;20351;-70
2023/07/10 07:19:48;;;;;;;;;;;;;;;;;;5304304;28;19908;-70
2023/07/10 07:22:19;;;;;;;;;;;;;;;;;;5304225;28;20339;-68
2023/07/10 07:24:50;;;;;;;;;;;;;;;;;;5304471;28;19908;-68
2023/07/10 07:27:22;;;;;;;;;;;;;;;;;;5305051;28;20248;-69
2023/07/10 07:29:53;;;;;;;;;;;;;;;;;;5303365;28;19974;-68
2023/07/10 07:32:24;;;;;;;;;;;;;;;;;;5300661;28;19919;-69
2023/07/10 07:34:55;;;;;;;;;;;;;;;;;;5303976;28;19912;-68
2023/07/10 07:37:27;;;;;;;;;;;;;;;;;;5303340;28;19965;-70
2023/07/10 07:40:00;;;;;;;;;;;;;;;;;;5304384;28;19943;-69
2023/07/10 07:42:31;;;;;;;;;;;;;;;;;;5303532;28;20643;-68
2023/07/10 07:45:02;;;;;;;;;;;;;;;;;;5302080;28;19904;-68
2023/07/10 07:47:33;;;;;;;;;;;;;;;;;;5301534;28;20360;-68
2023/07/10 07:50:04;;;;;;;;;;;;;;;;;;5301138;28;20285;-69
2023/07/10 07:52:36;;;;;;;;;;;;;;;;;;5302091;28;19915;-67
2023/07/10 07:55:07;;;;;;;;;;;;;;;;;;5299967;28;20278;-68
2023/07/10 07:57:38;;;;;;;;;;;;;;;;;;5299864;28;19908;-68
2023/07/10 08:00:09;;;;;;;;;;;;;;;;;;5303370;28;20424;-70
2023/07/10 08:02:40;;;;;;;;;;;;;;;;;;5303709;28;19949;-69
2023/07/10 08:05:11;;;;;;;;;;;;;;;;;;5303382;28;19904;-69
2023/07/10 08:07:42;;;;;;;;;;;;;;;;;;5303726;28;20079;-69
2023/07/10 08:10:13;;;;;;;;;;;;;;;;;;5304150;28;19910;-67
2023/07/10 08:12:44;;;;;;;;;;;;;;;;;;5302827;28;19904;-70
2023/07/10 08:15:15;;;;;;;;;;;;;;;;;;5303869;28;19919;-69
2023/07/10 08:17:47;;;;;;;;;;;;;;;;;;5298430;28;19919;-67
2023/07/10 08:20:19;;;;;;;;;;;;;;;;;;5303957;28;19908;-68
2023/07/10 08:22:50;;;;;;;;;;;;;;;;;;5303311;28;19950;-68
2023/07/10 08:25:21;;;;;;;;;;;;;;;;;;5302966;28;19908;-68
2023/07/10 08:27:53;;;;;;;;;;;;;;;;;;5302519;28;19926;-69
2023/07/10 08:30:24;;;;;;;;;;;;;;;;;;5302149;28;19907;-69
2023/07/10 08:32:55;;;;;;;;;;;;;;;;;;5301185;28;19912;-68
2023/07/10 08:35:27;;;;;;;;;;;;;;;;;;5303494;28;20003;-69
2023/07/10 08:37:58;;;;;;;;;;;;;;;;;;5303507;28;20014;-70
2023/07/10 08:40:29;;;;;;;;;;;;;;;;;;5302419;28;19957;-69
2023/07/10 08:43:01;;;;;;;;;;;;;;;;;;5303173;28;19961;-68
2023/07/10 08:45:32;;;;;;;;;;;;;;;;;;5302302;28;19908;-69
2023/07/10 08:48:03;;;;;;;;;;;;;;;;;;5303343;28;19956;-69
2023/07/10 08:50:34;;;;;;;;;;;;;;;;;;5303216;28;19955;-70
2023/07/10 08:53:05;;;;;;;;;;;;;;;;;;5302572;28;20282;-69
2023/07/10 08:55:36;;;;;;;;;;;;;;;;;;5303273;28;19915;-70
2023/07/10 08:58:07;;;;;;;;;;;;;;;;;;5303065;28;19908;-67
2023/07/10 09:00:39;;;;;;;;;;;;;;;;;;5302449;28;19908;-69
2023/07/10 09:03:11;;;;;;;;;;;;;;;;;;5303427;28;19958;-70
2023/07/10 09:05:42;;;;;;;;;;;;;;;;;;5302592;28;19904;-70
2023/07/10 09:08:13;;;;;;;;;;;;;;;;;;5301990;28;19958;-70
2023/07/10 09:10:44;;;;;;;;;;;;;;;;;;5302757;28;19904;-71
2023/07/10 09:13:16;;;;;;;;;;;;;;;;;;5303121;28;19951;-70
2023/07/10 09:15:47;;;;;;;;;;;;;;;;;;5301695;28;20018;-71
2023/07/10 09:18:18;;;;;;;;;;;;;;;;;;5305409;28;19912;-69
2023/07/10 09:20:49;;;;;;;;;;;;;;;;;;5305998;28;19957;-70
2023/07/10 09:23:21;;;;;;;;;;;;;;;;;;5307697;28;19907;-70
2023/07/10 09:25:52;;;;;;;;;;;;;;;;;;5306708;28;19915;-69
2023/07/10 09:28:23;;;;;;;;;;;;;;;;;;5306357;28;19912;-70
2023/07/10 09:30:54;;;;;;;;;;;;;;;;;;5306822;28;19912;-70
2023/07/10 09:33:25;;;;;;;;;;;;;;;;;;5306819;28;20417;-70
2023/07/10 09:35:56;;;;;;;;;;;;;;;;;;5306025;28;19999;-70
2023/07/10 09:38:27;;;;;;;;;;;;;;;;;;5306956;28;20320;-72
2023/07/10 09:40:59;;;;;;;;;;;;;;;;;;5306666;28;20361;-70
2023/07/10 09:43:30;;;;;;;;;;;;;;;;;;5305979;28;20350;-71
2023/07/10 09:46:01;;;;;;;;;;;;;;;;;;5306532;28;19908;-72
2023/07/10 09:48:32;;;;;;;;;;;;;;;;;;5306724;28;19919;-72
2023/07/10 09:51:03;;;;;;;;;;;;;;;;;;5305931;28;19904;-71
2023/07/10 09:53:34;;;;;;;;;;;;;;;;;;5306649;28;19912;-71
2023/07/10 09:56:05;;;;;;;;;;;;;;;;;;5305579;28;19904;-71
2023/07/10 09:58:36;;;;;;;;;;;;;;;;;;5306283;28;19911;-69
2023/07/10 10:01:07;;;;;;;;;;;;;;;;;;5306288;28;19904;-70
2023/07/10 10:03:39;;;;;;;;;;;;;;;;;;5305540;28;20282;-70
2023/07/10 10:06:10;;;;;;;;;;;;;;;;;;5306413;28;19904;-70
2023/07/10 10:08:41;;;;;;;;;;;;;;;;;;5305960;28;19943;-70
2023/07/10 10:11:12;;;;;;;;;;;;;;;;;;5301683;28;19996;-69
2023/07/10 10:13:43;;;;;;;;;;;;;;;;;;5321874;28;19911;-69
2023/07/10 10:16:14;;;;;;;;;;;;;;;;;;5305866;28;19998;-69
2023/07/10 10:18:45;;;;;;;;;;;;;;;;;;5304678;28;19998;-69
2023/07/10 10:21:16;;;;;;;;;;;;;;;;;;5306303;28;19904;-69
2023/07/10 10:23:48;;;;;;;;;;;;;;;;;;5305245;28;19904;-69
2023/07/10 10:26:19;;;;;;;;;;;;;;;;;;5305362;28;19915;-69
2023/07/10 10:28:50;;;;;;;;;;;;;;;;;;5304172;28;20365;-69
2023/07/10 10:31:21;;;;;;;;;;;;;;;;;;5304663;28;20281;-69
2023/07/10 10:33:52;;;;;;;;;;;;;;;;;;5304683;28;19965;-69
2023/07/10 10:36:23;;;;;;;;;;;;;;;;;;5305658;28;19995;-70
2023/07/10 10:38:54;;;;;;;;;;;;;;;;;;5304855;28;19997;-70
2023/07/10 10:41:26;;;;;;;;;;;;;;;;;;5305486;28;19908;-71
2023/07/10 10:43:57;;;;;;;;;;;;;;;;;;5303189;28;19900;-70
2023/07/10 10:46:28;;;;;;;;;;;;;;;;;;5304921;28;19910;-70
2023/07/10 10:48:59;;;;;;;;;;;;;;;;;;5305445;28;19904;-70
2023/07/10 10:51:30;;;;;;;;;;;;;;;;;;5305178;28;20350;-70
2023/07/10 10:54:01;;;;;;;;;;;;;;;;;;5304427;28;19957;-70
2023/07/10 10:56:33;;;;;;;;;;;;;;;;;;5305123;28;19905;-70
2023/07/10 10:59:04;;;;;;;;;;;;;;;;;;5305078;28;19955;-70
2023/07/10 11:01:35;;;;;;;;;;;;;;;;;;5304495;28;19950;-70
2023/07/10 11:04:06;;;;;;;;;;;;;;;;;;5305002;28;19904;-70
2023/07/10 11:06:37;;;;;;;;;;;;;;;;;;5304281;28;19904;-71
2023/07/10 11:09:09;;;;;;;;;;;;;;;;;;5304811;28;19908;-69
2023/07/10 11:11:40;;;;;;;;;;;;;;;;;;5304789;28;19904;-69
2023/07/10 11:14:12;;;;;;;;;;;;;;;;;;5304435;28;19982;-69
2023/07/10 11:16:43;;;;;;;;;;;;;;;;;;5304283;28;20007;-70
2023/07/10 11:19:14;;;;;;;;;;;;;;;;;;5305023;28;20256;-69
2023/07/10 11:21:45;;;;;;;;;;;;;;;;;;5300108;28;19935;-69
2023/07/10 11:24:16;;;;;;;;;;;;;;;;;;5303735;28;19904;-69
2023/07/10 11:26:47;;;;;;;;;;;;;;;;;;5300167;28;20358;-69
2023/07/10 11:29:19;;;;;;;;;;;;;;;;;;5304190;28;19931;-69
2023/07/10 11:31:55;;;;;;;;;;;;;;;;;;5303766;28;19923;-68
2023/07/10 11:34:26;;;;;;;;;;;;;;;;;;5303360;28;20370;-69
2023/07/10 11:36:58;;;;;;;;;;;;;;;;;;5304090;28;19933;-69
2023/07/10 11:39:29;;;;;;;;;;;;;;;;;;5304150;28;20248;-70
2023/07/10 11:42:00;;;;;;;;;;;;;;;;;;5302589;28;19915;-69
2023/07/10 11:44:31;;;;;;;;;;;;;;;;;;5303842;28;19904;-69
2023/07/10 11:47:02;;;;;;;;;;;;;;;;;;5303833;28;20350;-69
2023/07/10 11:49:33;;;;;;;;;;;;;;;;;;5302938;28;19904;-69
2023/07/10 11:52:05;;;;;;;;;;;;;;;;;;5303810;28;19923;-70
2023/07/10 11:54:36;;;;;;;;;;;;;;;;;;5302738;28;19937;-71
2023/07/10 11:57:07;;;;;;;;;;;;;;;;;;5302730;28;20010;-71
2023/07/10 11:59:38;;;;;;;;;;;;;;;;;;5303881;28;20295;-70
2023/07/10 12:02:09;;;;;;;;;;;;;;;;;;5302330;28;19949;-70
2023/07/10 12:04:40;;;;;;;;;;;;;;;;;;5302867;28;19973;-70
2023/07/10 12:07:11;;;;;;;;;;;;;;;;;;5304047;28;19905;-71
2023/07/10 12:09:42;;;;;;;;;;;;;;;;;;5302290;28;19904;-70
2023/07/10 12:12:13;;;;;;;;;;;;;;;;;;5300354;28;19927;-69
2023/07/10 12:14:44;;;;;;;;;;;;;;;;;;5298567;28;19966;-70
2023/07/10 12:17:16;;;;;;;;;;;;;;;;;;5302880;28;19973;-69
2023/07/10 12:19:47;;;;;;;;;;;;;;;;;;5303116;28;19908;-69
2023/07/10 12:22:18;;;;;;;;;;;;;;;;;;5303238;28;20269;-69
2023/07/10 12:24:49;;;;;;;;;;;;;;;;;;5300708;28;20281;-70
2023/07/10 12:27:20;;;;;;;;;;;;;;;;;;5303495;28;20324;-71
2023/07/10 12:29:52;;;;;;;;;;;;;;;;;;5302875;28;19947;-71
2023/07/10 12:32:23;;;;;;;;;;;;;;;;;;5302492;28;19995;-71
2023/07/10 12:34:54;;;;;;;;;;;;;;;;;;5302803;28;20358;-70
2023/07/10 12:37:25;;;;;;;;;;;;;;;;;;5303425;28;19904;-70
2023/07/10 12:39:56;;;;;;;;;;;;;;;;;;5302062;28;20367;-70
2023/07/10 12:42:27;;;;;;;;;;;;;;;;;;5303025;28;19950;-70
2023/07/10 12:44:58;;;;;;;;;;;;;;;;;;5302187;28;19940;-70
2023/07/10 12:47:29;;;;;;;;;;;;;;;;;;5303069;28;19918;-70
2023/07/10 12:50:00;;;;;;;;;;;;;;;;;;5302546;28;19908;-71
2023/07/10 12:52:33;;;;;;;;;;;;;;;;;;5301878;28;19957;-70
2023/07/10 12:55:04;;;;;;;;;;;;;;;;;;5302828;28;19912;-69
2023/07/10 12:57:35;;;;;;;;;;;;;;;;;;5302569;28;19950;-70
2023/07/10 13:00:06;;;;;;;;;;;;;;;;;;5302459;28;19911;-70
2023/07/10 13:02:37;;;;;;;;;;;;;;;;;;5302793;28;19949;-69
2023/07/10 13:05:09;;;;;;;;;;;;;;;;;;5302756;28;19908;-70
2023/07/10 13:07:40;;;;;;;;;;;;;;;;;;5301884;28;19904;-69
2023/07/10 13:10:11;;;;;;;;;;;;;;;;;;5300095;28;20003;-69
2023/07/10 13:12:42;;;;;;;;;;;;;;;;;;5322758;28;19913;-69
2023/07/10 13:15:13;;;;;;;;;;;;;;;;;;5322968;28;20282;-70
2023/07/10 13:17:44;;;;;;;;;;;;;;;;;;5323479;28;20049;-71
2023/07/10 13:20:15;;;;;;;;;;;;;;;;;;5323468;28;19946;-69
2023/07/10 13:22:46;;;;;;;;;;;;;;;;;;5321724;28;19904;-68
2023/07/10 13:25:18;;;;;;;;;;;;;;;;;;5323974;28;19904;-69
2023/07/10 13:27:49;;;;;;;;;;;;;;;;;;5322653;28;20366;-69
2023/07/10 13:30:20;;;;;;;;;;;;;;;;;;5323850;28;19911;-70
2023/07/10 13:32:51;;;;;;;;;;;;;;;;;;5323208;28;20393;-69
2023/07/10 13:35:22;;;;;;;;;;;;;;;;;;5322965;28;19923;-68
2023/07/10 13:37:53;;;;;;;;;;;;;;;;;;5323364;28;19904;-69
2023/07/10 13:40:24;;;;;;;;;;;;;;;;;;5323734;28;19911;-70
2023/07/10 13:42:55;;;;;;;;;;;;;;;;;;5322822;28;19950;-70
2023/07/10 13:45:27;;;;;;;;;;;;;;;;;;5323693;28;19904;-70
2023/07/10 13:47:58;;;;;;;;;;;;;;;;;;5323014;28;19904;-70
2023/07/10 13:50:29;;;;;;;;;;;;;;;;;;5323455;28;19979;-70
2023/07/10 13:53:00;;;;;;;;;;;;;;;;;;5323746;28;19915;-69
2023/07/10 13:55:31;;;;;;;;;;;;;;;;;;5322766;28;19984;-70
2023/07/10 13:58:02;;;;;;;;;;;;;;;;;;5323686;28;20269;-69
2023/07/10 14:00:36;;;;;;;;;;;;;;;;;;5323693;28;19904;-69
2023/07/10 14:03:07;;;;;;;;;;;;;;;;;;5322930;28;19990;-69
2023/07/10 14:05:38;;;;;;;;;;;;;;;;;;5327641;28;20081;-69
2023/07/10 14:08:09;;;;;;;;;;;;;;;;;;5327265;28;19903;-69
2023/07/10 14:10:41;;;;;;;;;;;;;;;;;;5326255;28;19910;-69
2023/07/10 14:13:12;;;;;;;;;;;;;;;;;;5327533;28;19910;-69
2023/07/10 14:15:43;;;;;;;;;;;;;;;;;;5327099;28;19907;-69
2023/07/10 14:18:14;;;;;;;;;;;;;;;;;;5326808;28;19904;-70
2023/07/10 14:20:45;;;;;;;;;;;;;;;;;;5326862;28;19904;-69
2023/07/10 14:23:16;;;;;;;;;;;;;;;;;;5326913;28;19962;-70
2023/07/10 14:25:47;;;;;;;;;;;;;;;;;;5327073;28;20374;-69
2023/07/10 14:28:18;;;;;;;;;;;;;;;;;;5327249;28;19907;-69
2023/07/10 14:30:49;;;;;;;;;;;;;;;;;;5325814;28;19939;-70
2023/07/10 14:33:21;;;;;;;;;;;;;;;;;;5327111;28;19904;-69
2023/07/10 14:35:52;;;;;;;;;;;;;;;;;;5326704;28;20369;-69
2023/07/10 14:38:23;;;;;;;;;;;;;;;;;;5326302;28;19908;-71
2023/07/10 14:40:54;;;;;;;;;;;;;;;;;;5326764;28;19946;-69
2023/07/10 14:43:25;;;;;;;;;;;;;;;;;;5326698;28;20315;-69
2023/07/10 14:45:56;;;;;;;;;;;;;;;;;;5325770;28;19908;-69
2023/07/10 14:48:27;;;;;;;;;;;;;;;;;;5326992;28;20369;-69
2023/07/10 14:50:58;;;;;;;;;;;;;;;;;;5326610;28;19907;-69
2023/07/10 14:53:29;;;;;;;;;;;;;;;;;;5325786;28;20416;-70
2023/07/10 14:56:01;;;;;;;;;;;;;;;;;;5326412;28;19908;-70
2023/07/10 14:58:32;;;;;;;;;;;;;;;;;;5325647;28;19912;-71
2023/07/10 15:01:03;;;;;;;;;;;;;;;;;;5326509;28;19962;-69
2023/07/10 15:03:35;;;;;;;;;;;;;;;;;;5326517;28;19930;-69
2023/07/10 15:06:06;;;;;;;;;;;;;;;;;;5325787;28;19904;-69
2023/07/10 15:08:38;;;;;;;;;;;;;;;;;;5326199;28;19904;-69
2023/07/10 15:11:09;;;;;;;;;;;;;;;;;;5326171;28;19904;-69
2023/07/10 15:13:40;;;;;;;;;;;;;;;;;;5325362;28;19912;-70
2023/07/10 15:16:11;;;;;;;;;;;;;;;;;;5325708;28;19949;-69
2023/07/10 15:18:42;;;;;;;;;;;;;;;;;;5325934;28;20274;-70
2023/07/10 15:21:13;;;;;;;;;;;;;;;;;;5325338;28;19904;-70
2023/07/10 15:23:44;;;;;;;;;;;;;;;;;;5325829;28;20346;-70
2023/07/10 15:26:15;;;;;;;;;;;;;;;;;;5325985;28;19903;-70
2023/07/10 15:28:46;;;;;;;;;;;;;;;;;;5324680;28;19903;-70
2023/07/10 15:31:17;;;;;;;;;;;;;;;;;;5326057;28;19969;-70
2023/07/10 15:33:49;;;;;;;;;;;;;;;;;;5324643;28;19915;-68
2023/07/10 15:36:21;;;;;;;;;;;;;;;;;;5326000;28;19957;-70
2023/07/10 15:38:52;;;;;;;;;;;;;;;;;;5325568;28;19900;-70
2023/07/10 15:41:23;;;;;;;;;;;;;;;;;;5324964;28;19971;-70
2023/07/10 15:43:54;;;;;;;;;;;;;;;;;;5325492;28;19912;-70
2023/07/10 15:46:26;;;;;;;;;;;;;;;;;;5325442;28;19908;-71
2023/07/10 15:48:57;;;;;;;;;;;;;;;;;;5324860;28;20336;-70
2023/07/10 15:51:28;;;;;;;;;;;;;;;;;;5325487;28;19900;-69
2023/07/10 15:53:59;;;;;;;;;;;;;;;;;;5325105;28;19931;-69
2023/07/10 15:56:30;;;;;;;;;;;;;;;;;;5324467;28;19904;-69
2023/07/10 15:59:01;;;;;;;;;;;;;;;;;;5325297;28;19956;-69
2023/07/10 16:01:32;;;;;;;;;;;;;;;;;;5324784;28;19903;-69
2023/07/10 16:04:03;;;;;;;;;;;;;;;;;;5324794;28;19904;-69
2023/07/10 16:06:35;;;;;;;;;;;;;;;;;;5324982;28;19904;-69
2023/07/10 16:09:06;;;;;;;;;;;;;;;;;;5324127;28;19904;-69
2023/07/10 16:11:37;;;;;;;;;;;;;;;;;;5325155;28;19904;-70
2023/07/10 16:14:08;;;;;;;;;;;;;;;;;;5324694;28;19918;-70
2023/07/10 16:16:39;;;;;;;;;;;;;;;;;;5323982;28;19914;-70
2023/07/10 16:19:10;;;;;;;;;;;;;;;;;;5325156;28;19903;-69
2023/07/10 16:21:41;;;;;;;;;;;;;;;;;;5324403;28;19928;-70
2023/07/10 16:24:13;;;;;;;;;;;;;;;;;;5324417;28;19911;-69
2023/07/10 16:26:44;;;;;;;;;;;;;;;;;;5323881;28;19903;-70
2023/07/10 16:29:15;;;;;;;;;;;;;;;;;;5324780;28;19903;-70
2023/07/10 16:31:46;;;;;;;;;;;;;;;;;;5323201;28;19959;-70
2023/07/10 16:34:17;;;;;;;;;;;;;;;;;;5324812;28;19987;-70
2023/07/10 16:36:48;;;;;;;;;;;;;;;;;;5323556;28;19911;-70
2023/07/10 16:39:19;;;;;;;;;;;;;;;;;;5324642;28;19943;-70
2023/07/10 16:41:52;;;;;;;;;;;;;;;;;;5324205;28;19904;-69
2023/07/10 16:44:23;;;;;;;;;;;;;;;;;;5323581;28;19903;-69
2023/07/10 16:46:54;;;;;;;;;;;;;;;;;;5324287;28;19910;-70
2023/07/10 16:49:25;;;;;;;;;;;;;;;;;;5324520;28;19911;-70
2023/07/10 16:51:56;;;;;;;;;;;;;;;;;;5323337;28;19946;-70
2023/07/10 16:54:28;;;;;;;;;;;;;;;;;;5324345;28;19911;-72
2023/07/10 16:56:59;;;;;;;;;;;;;;;;;;5324086;28;20487;-72
2023/07/10 16:59:30;;;;;;;;;;;;;;;;;;5322872;28;20003;-72
2023/07/10 17:02:01;;;;;;;;;;;;;;;;;;5324180;28;20384;-72
2023/07/10 17:04:32;;;;;;;;;;;;;;;;;;5323858;28;19910;-72
2023/07/10 17:07:03;;;;;;;;;;;;;;;;;;5323210;28;20311;-69
2023/07/10 17:09:34;;;;;;;;;;;;;;;;;;5323871;28;20011;-71
2023/07/10 17:12:05;;;;;;;;;;;;;;;;;;5323405;28;19910;-70